Time;durP1;ratioP1;P1;durP2;ratioP2;P2;SDS_P1;SDS_P2;PMS_P1;PMS_P2;Temp;Humidity;BMP_temperature;BMP_pressure;BME280_temperature;BME280_humidity;BME280_pressure;Samples;Min_cycle;Max_cycle;Signal;HPM_P1;HPM_P2
2022/08/11 00:02:30;;;;;;;6.85;4.70;;;19.70;99.90;;;;;;5154590;27;20579;-81
2022/08/11 00:05:06;;;;;;;6.60;5.50;;;19.60;99.90;;;;;;5133316;27;20603;-82
2022/08/11 00:07:33;;;;;;;7.32;4.95;;;19.60;99.90;;;;;;5134801;27;20272;-83
2022/08/11 00:10:01;;;;;;;6.30;5.70;;;19.60;99.90;;;;;;5134778;27;20195;-83
2022/08/11 00:12:28;;;;;;;7.30;5.47;;;19.60;99.90;;;;;;5134411;27;20283;-82
2022/08/11 00:14:58;;;;;;;6.18;5.57;;;19.50;99.90;;;;;;5134448;27;20195;-82
2022/08/11 00:17:29;;;;;;;6.30;5.43;;;19.50;99.90;;;;;;5133857;27;20198;-84
2022/08/11 00:20:05;;;;;;;5.95;5.32;;;19.50;99.90;;;;;;5133880;27;20594;-83
2022/08/11 00:22:34;;;;;;;7.78;5.97;;;19.50;99.90;;;;;;5134595;27;20306;-81
2022/08/11 00:25:08;;;;;;;5.47;4.90;;;19.50;99.90;;;;;;5133179;27;20206;-81
2022/08/11 00:27:37;;;;;;;7.22;5.72;;;19.50;99.90;;;;;;5133033;27;20187;-84
2022/08/11 00:30:05;;;;;;;6.88;5.80;;;19.40;99.90;;;;;;5133522;27;20204;-82
2022/08/11 00:32:33;;;;;;;6.75;6.00;;;19.40;99.90;;;;;;5133271;27;20199;-81
2022/08/11 00:35:02;;;;;;;6.47;5.78;;;19.30;99.90;;;;;;5132664;27;20195;-82
2022/08/11 00:37:30;;;;;;;8.82;5.45;;;19.30;99.90;;;;;;5133440;27;20311;-81
2022/08/11 00:39:58;;;;;;;8.80;6.25;;;19.30;99.90;;;;;;5133017;27;20211;-81
2022/08/11 00:42:41;;;;;;;5.40;5.00;;;19.30;99.90;;;;;;5133071;27;20191;-81
2022/08/11 00:45:13;;;;;;;5.18;4.65;;;19.20;99.90;;;;;;5132808;27;20202;-80
2022/08/11 00:47:55;;;;;;;5.20;4.38;;;19.30;99.90;;;;;;5132422;27;20187;-81
2022/08/11 00:50:34;;;;;;;6.50;5.45;;;19.20;99.90;;;;;;5132799;27;20685;-81
2022/08/11 00:53:30;;;;;;;5.65;5.10;;;19.20;99.90;;;;;;5132863;27;20183;-80
2022/08/11 00:56:38;;;;;;;5.78;5.28;;;19.10;99.90;;;;;;5131512;28;20207;-80
2022/08/11 00:59:41;;;;;;;5.57;5.05;;;19.10;99.90;;;;;;5132352;27;20514;-82
2022/08/11 01:02:17;;;;;;;7.32;6.05;;;19.10;99.90;;;;;;5132066;28;20194;-80
2022/08/11 01:05:23;;;;;;;6.00;5.40;;;19.10;99.90;;;;;;5141358;27;20310;-81
2022/08/11 01:08:35;;;;;;;7.35;6.13;;;19.10;99.90;;;;;;5115942;28;20582;-80
2022/08/11 01:11:46;;;;;;;5.57;5.03;;;19.00;99.90;;;;;;5144876;27;20202;-80
2022/08/11 01:14:50;;;;;;;5.55;5.05;;;19.00;99.90;;;;;;5153252;27;20323;-81
2022/08/11 01:17:59;;;;;;;5.63;5.13;;;19.00;99.90;;;;;;5146761;27;20194;-81
2022/08/11 01:21:03;;;;;;;5.63;5.13;;;18.90;99.90;;;;;;5132864;28;20202;-81
2022/08/11 01:24:20;;;;;;;5.78;4.82;;;18.90;99.90;;;;;;5132021;28;20310;-80
2022/08/11 01:27:20;;;;;;;7.30;5.90;;;18.80;99.90;;;;;;5132497;27;20312;-80
2022/08/11 01:30:29;;;;;;;5.30;4.90;;;18.80;99.90;;;;;;5135257;27;20582;-80
2022/08/11 01:33:47;;;;;;;6.28;5.68;;;18.80;99.90;;;;;;5136266;27;20190;-81
2022/08/11 01:36:49;;;;;;;7.05;6.40;;;18.70;99.90;;;;;;5136940;27;20221;-81
2022/08/11 01:39:46;;;;;;;5.90;5.38;;;18.70;99.90;;;;;;5135891;27;20211;-80
2022/08/11 01:45:59;;;;;;;6.25;5.50;;;18.60;99.90;;;;;;5136774;27;20226;-81
2022/08/11 01:48:39;;;;;;;6.50;5.80;;;18.60;99.90;;;;;;5135947;27;20244;-80
2022/08/11 01:51:17;;;;;;;6.97;5.97;;;18.60;99.90;;;;;;5135681;27;20203;-81
2022/08/11 01:53:53;;;;;;;6.40;5.65;;;18.50;99.90;;;;;;5136483;27;20482;-81
2022/08/11 01:56:33;;;;;;;5.95;5.45;;;18.50;99.90;;;;;;5136740;27;20187;-83
2022/08/11 01:59:09;;;;;;;7.63;6.43;;;18.50;99.90;;;;;;5136421;27;20310;-83
2022/08/11 02:01:57;;;;;;;6.82;6.22;;;18.50;99.90;;;;;;5136718;27;20198;-81
2022/08/11 02:04:31;;;;;;;7.47;6.78;;;18.50;99.90;;;;;;5135607;27;20395;-80
2022/08/11 02:07:04;;;;;;;6.85;6.18;;;18.40;99.90;;;;;;5135805;27;20557;-81
2022/08/11 02:09:51;;;;;;;9.15;6.57;;;18.40;99.90;;;;;;5136231;27;20197;-82
2022/08/11 02:12:36;;;;;;;6.50;5.90;;;18.40;99.90;;;;;;5136097;27;20191;-83
2022/08/11 02:15:12;;;;;;;7.82;6.55;;;18.40;99.90;;;;;;5156641;27;20195;-82
2022/08/11 02:17:50;;;;;;;8.25;7.13;;;18.40;99.90;;;;;;5156680;27;20269;-82
2022/08/11 02:23:41;;;;;;;6.43;5.82;;;18.30;99.90;;;;;;5135804;27;20327;-81
2022/08/11 02:26:16;;;;;;;7.55;6.90;;;18.30;99.90;;;;;;5134317;27;20207;-80
2022/08/11 02:28:53;;;;;;;9.32;6.82;;;18.30;99.90;;;;;;5135376;27;20206;-80
2022/08/11 02:34:20;;;;;;;7.28;6.10;;;18.20;99.90;;;;;;5151718;27;20247;-81
2022/08/11 02:36:55;;;;;;;6.78;6.07;;;18.20;99.90;;;;;;5156683;27;20734;-81
2022/08/11 02:39:25;;;;;;;8.35;6.05;;;18.20;99.90;;;;;;5156058;27;20272;-80
2022/08/11 02:42:24;;;;;;;7.30;5.97;;;18.20;99.90;;;;;;5146829;27;20206;-81
2022/08/11 02:45:16;;;;;;;7.22;6.53;;;18.20;99.90;;;;;;5135403;27;20219;-80
2022/08/11 02:50:38;;;;;;;8.07;7.38;;;18.10;99.90;;;;;;5134142;27;20282;-82
2022/08/11 02:53:12;;;;;;;7.15;6.45;;;18.10;99.90;;;;;;5135010;27;20196;-82
2022/08/11 02:55:50;;;;;;;6.97;6.28;;;18.10;99.90;;;;;;5134303;27;20206;-81
2022/08/11 02:58:31;;;;;;;8.30;7.55;;;18.10;99.90;;;;;;5134926;27;20250;-80
2022/08/11 03:01:10;;;;;;;6.40;5.88;;;18.10;99.90;;;;;;5134474;27;20283;-81
2022/08/11 03:03:46;;;;;;;7.18;6.47;;;18.00;99.90;;;;;;5134461;27;20298;-80
2022/08/11 03:06:26;;;;;;;7.85;7.07;;;18.00;99.90;;;;;;5135274;27;20582;-82
2022/08/11 03:08:59;;;;;;;7.85;6.85;;;18.00;99.90;;;;;;5134943;27;20187;-81
2022/08/11 03:17:30;;;;;;;7.30;6.60;;;18.00;99.90;;;;;;5134462;27;20608;-81
2022/08/11 03:20:28;;;;;;;6.82;6.20;;;17.90;99.90;;;;;;5134821;27;20406;-81
2022/08/11 03:23:03;;;;;;;9.00;7.45;;;17.90;99.90;;;;;;5133443;27;20599;-80
2022/08/11 03:25:37;;;;;;;8.13;7.32;;;17.90;99.90;;;;;;5134142;27;20575;-80
2022/08/11 03:28:20;;;;;;;7.68;5.97;;;17.90;99.90;;;;;;5134469;27;20305;-81
2022/08/11 03:30:54;;;;;;;7.80;5.90;;;17.90;99.90;;;;;;5133328;27;20191;-83
2022/08/11 03:36:56;;;;;;;7.10;6.40;;;17.90;99.90;;;;;;5098288;27;20678;-80
2022/08/11 03:39:34;;;;;;;7.93;7.22;;;17.80;99.90;;;;;;5086863;28;20208;-81
2022/08/11 03:42:11;;;;;;;7.07;6.45;;;17.80;99.90;;;;;;5090621;28;20275;-80
2022/08/11 03:45:06;;;;;;;7.57;6.88;;;17.80;99.90;;;;;;5127531;27;20645;-81
2022/08/11 03:48:01;;;;;;;7.10;6.50;;;17.80;99.90;;;;;;5139487;27;20206;-82
2022/08/11 03:50:55;;;;;;;6.68;5.97;;;17.80;99.90;;;;;;5134709;27;20171;-83
2022/08/11 03:53:39;;;;;;;8.32;6.80;;;17.80;99.90;;;;;;5134944;27;20270;-83
2022/08/11 03:56:41;;;;;;;6.32;5.78;;;17.80;99.90;;;;;;5133906;27;20281;-83
2022/08/11 03:59:30;;;;;;;7.93;7.07;;;17.70;99.90;;;;;;5134443;27;20355;-86
2022/08/11 04:02:26;;;;;;;7.47;6.78;;;17.70;99.90;;;;;;5133941;27;20595;-85
2022/08/11 04:05:44;;;;;;;8.25;7.53;;;17.70;99.90;;;;;;5134379;27;20301;-85
2022/08/11 04:08:31;;;;;;;8.10;7.40;;;17.70;99.90;;;;;;5134006;27;20226;-82
2022/08/11 04:11:41;;;;;;;8.50;7.22;;;17.70;99.90;;;;;;5133903;27;20298;-81
2022/08/11 04:17:43;;;;;;;8.65;7.85;;;17.70;99.90;;;;;;5134423;27;20202;-83
2022/08/11 04:20:43;;;;;;;8.18;7.13;;;17.70;99.90;;;;;;5126224;27;20204;-83
2022/08/11 04:23:32;;;;;;;8.75;7.18;;;17.70;99.90;;;;;;5154374;27;20205;-83
2022/08/11 04:26:48;;;;;;;6.80;6.10;;;17.60;99.90;;;;;;5133376;27;20201;-81
2022/08/11 04:29:29;;;;;;;7.00;6.30;;;17.60;99.90;;;;;;5134881;27;20213;-83
2022/08/11 04:32:15;;;;;;;6.18;5.68;;;17.60;99.90;;;;;;5134251;27;20567;-80
2022/08/11 04:35:03;;;;;;;7.38;6.63;;;17.50;99.90;;;;;;5138265;27;20218;-85
2022/08/11 04:37:58;;;;;;;7.75;6.95;;;17.50;99.90;;;;;;5135353;27;20832;-85
2022/08/11 04:40:48;;;;;;;9.77;8.45;;;17.50;99.90;;;;;;5123605;27;20298;-85
2022/08/11 04:43:55;;;;;;;8.43;7.63;;;17.50;99.90;;;;;;5134761;27;20211;-85
2022/08/11 04:46:47;;;;;;;8.02;7.00;;;17.40;99.90;;;;;;5134496;27;20192;-85
2022/08/11 05:02:51;;;;;;;9.88;8.88;;;17.50;99.90;;;;;;5132721;27;20214;-83
2022/08/11 05:05:31;;;;;;;9.55;8.55;;;17.50;99.90;;;;;;5138733;27;20218;-84
2022/08/11 05:08:58;;;;;;;8.98;7.80;;;17.50;99.90;;;;;;5137348;27;20197;-85
2022/08/11 05:37:04;;;;;;;9.88;8.70;;;17.70;99.90;;;;;;5048803;28;20367;-79
2022/08/11 05:56:34;;;;;;;11.63;10.43;;;18.00;99.90;;;;;;5049922;28;20221;-83
2022/08/11 05:59:01;;;;;;;11.85;10.57;;;18.10;99.90;;;;;;5049865;28;20625;-85
2022/08/11 06:01:33;;;;;;;10.27;8.82;;;18.20;99.90;;;;;;5065046;28;20208;-83
2022/08/11 06:04:16;;;;;;;11.10;9.65;;;18.30;99.90;;;;;;5069754;28;20189;-82
2022/08/11 06:06:55;;;;;;;12.68;10.30;;;18.40;99.90;;;;;;5069783;28;20271;-82
2022/08/11 06:09:28;;;;;;;11.13;9.90;;;18.50;99.90;;;;;;5066149;28;20216;-82
2022/08/11 06:11:59;;;;;;;9.68;8.77;;;18.60;99.90;;;;;;5049482;28;20206;-82
2022/08/11 06:14:27;;;;;;;9.07;8.27;;;18.70;99.90;;;;;;5050048;28;20281;-82
2022/08/11 06:16:59;;;;;;;10.32;9.15;;;18.90;99.90;;;;;;5049645;28;20194;-83
2022/08/11 06:19:34;;;;;;;9.57;8.27;;;19.10;99.90;;;;;;5048579;28;20638;-81
2022/08/11 06:22:03;;;;;;;9.15;8.35;;;19.30;99.90;;;;;;5048853;28;20728;-82
2022/08/11 06:24:32;;;;;;;9.02;8.13;;;19.50;99.90;;;;;;5044330;28;20202;-83
2022/08/11 06:27:00;;;;;;;9.15;8.35;;;19.80;99.90;;;;;;5035448;28;20198;-81
2022/08/11 06:29:28;;;;;;;9.20;7.30;;;20.10;99.90;;;;;;5035084;28;20536;-82
2022/08/11 06:31:58;;;;;;;7.95;7.20;;;20.30;99.90;;;;;;5034556;28;20752;-82
2022/08/11 06:34:37;;;;;;;6.90;6.20;;;20.50;99.90;;;;;;5035267;28;20255;-79
2022/08/11 06:37:18;;;;;;;7.57;6.25;;;20.80;99.90;;;;;;5044358;28;20313;-80
2022/08/11 06:39:52;;;;;;;7.50;6.55;;;21.00;99.90;;;;;;5034916;28;20207;-82
2022/08/11 06:42:36;;;;;;;7.22;5.63;;;21.30;99.90;;;;;;5035335;28;20203;-81
2022/08/11 06:45:10;;;;;;;6.60;6.00;;;21.60;99.90;;;;;;5035172;28;20197;-81
2022/08/11 06:47:41;;;;;;;5.50;5.00;;;21.80;99.90;;;;;;5034307;28;20199;-82
2022/08/11 06:52:55;;;;;;;7.60;4.93;;;22.20;99.90;;;;;;5054979;28;20270;-81
2022/08/11 07:00:56;;;;;;;7.05;5.57;;;22.90;99.90;;;;;;5057204;28;20197;-80
2022/08/11 07:03:27;;;;;;;7.82;5.25;;;23.10;99.90;;;;;;5059201;28;20193;-78
2022/08/11 07:06:04;;;;;;;5.65;5.15;;;23.30;99.90;;;;;;5069524;28;20226;-78
2022/08/11 07:17:48;;;;;;;5.72;5.22;;;24.40;99.90;;;;;;5054658;28;20193;-84
2022/08/11 07:28:57;;;;;;;7.50;4.85;;;25.20;99.90;;;;;;5033355;28;20186;-82
2022/08/11 07:31:30;;;;;;;7.13;4.57;;;25.50;99.90;;;;;;5049010;28;20209;-80
2022/08/11 07:34:05;;;;;;;4.65;4.20;;;25.80;99.90;;;;;;5041361;28;20210;-81
2022/08/11 07:36:33;;;;;;;6.15;4.40;;;26.00;99.90;;;;;;5045129;28;20891;-84
2022/08/11 07:39:03;;;;;;;4.88;4.28;;;26.30;99.90;;;;;;5048854;28;20639;-88
2022/08/11 07:41:34;;;;;;;5.05;3.58;;;26.40;99.90;;;;;;5034723;28;20210;-82
2022/08/11 07:44:08;;;;;;;5.55;3.90;;;26.70;99.90;;;;;;5033172;28;20294;-81
2022/08/11 07:54:55;;;;;;;3.97;3.13;;;27.50;99.90;;;;;;5052744;28;20259;-81
2022/08/11 08:19:24;;;;;;;2.65;1.98;;;29.10;99.90;;;;;;5031798;28;20280;-81
2022/08/11 08:21:52;;;;;;;2.50;2.03;;;29.40;99.90;;;;;;5032200;28;20194;-82
2022/08/11 08:24:21;;;;;;;3.45;2.25;;;29.50;99.90;;;;;;5031224;28;20195;-81
2022/08/11 08:26:59;;;;;;;2.55;1.95;;;29.60;99.90;;;;;;5032831;28;20208;-82
2022/08/11 08:32:15;;;;;;;2.78;2.15;;;30.00;99.90;;;;;;5032414;28;20228;-82
2022/08/11 08:34:42;;;;;;;3.80;2.17;;;30.10;99.90;;;;;;5032439;28;20252;-82
2022/08/11 08:37:09;;;;;;;4.15;1.65;;;30.20;99.90;;;;;;5032856;28;20219;-82
2022/08/11 08:39:37;;;;;;;1.95;1.52;;;30.10;99.90;;;;;;5031666;28;20217;-81
2022/08/11 08:42:10;;;;;;;3.78;1.88;;;30.30;99.90;;;;;;5032297;28;20191;-86
2022/08/11 08:44:41;;;;;;;5.32;1.90;;;30.40;99.90;;;;;;5033367;28;20202;-83
2022/08/11 08:47:12;;;;;;;2.67;1.65;;;30.40;99.90;;;;;;5031814;28;20194;-82
2022/08/11 08:49:48;;;;;;;2.38;1.70;;;30.50;99.90;;;;;;5032936;28;20544;-82
2022/08/11 08:52:18;;;;;;;3.53;1.70;;;30.70;99.90;;;;;;5032863;28;20208;-86
2022/08/11 08:54:48;;;;;;;1.88;1.40;;;30.70;99.90;;;;;;5033610;28;20297;-86
2022/08/11 08:57:18;;;;;;;3.22;1.60;;;30.90;99.90;;;;;;5032973;28;20222;-86
2022/08/11 08:59:49;;;;;;;3.05;1.42;;;31.00;99.90;;;;;;5032272;28;20202;-83
2022/08/11 09:02:18;;;;;;;4.53;1.58;;;31.30;99.90;;;;;;5032124;28;20281;-83
2022/08/11 09:04:46;;;;;;;3.78;1.63;;;31.40;99.90;;;;;;5033043;28;20598;-82
2022/08/11 09:07:16;;;;;;;6.57;1.90;;;31.60;99.90;;;;;;5030978;28;20278;-82
2022/08/11 09:09:44;;;;;;;3.47;2.08;;;31.60;99.90;;;;;;5032505;28;20202;-84
2022/08/11 09:12:12;;;;;;;1.98;1.55;;;31.30;99.90;;;;;;5032979;28;20199;-84
2022/08/11 09:15:02;;;;;;;2.35;1.45;;;31.30;99.90;;;;;;5032056;28;20230;-82
2022/08/11 09:17:36;;;;;;;2.38;1.40;;;31.40;99.90;;;;;;5032380;28;20286;-83
2022/08/11 09:20:07;;;;;;;4.63;1.38;;;31.60;99.90;;;;;;5034093;28;20667;-83
2022/08/11 09:28:10;;;;;;;3.35;1.75;;;31.70;99.90;;;;;;5040651;28;20272;-82
2022/08/11 09:30:41;;;;;;;2.05;1.45;;;31.80;99.90;;;;;;5032662;28;20193;-83
2022/08/11 09:33:11;;;;;;;5.28;1.70;;;31.70;99.90;;;;;;5032122;28;20297;-83
2022/08/11 09:35:42;;;;;;;1.70;1.35;;;31.70;99.90;;;;;;5032239;28;20226;-82
2022/08/11 09:40:58;;;;;;;3.50;1.42;;;31.50;99.90;;;;;;5033153;28;20190;-85
2022/08/11 09:46:14;;;;;;;2.28;1.25;;;32.00;99.90;;;;;;5032833;28;20189;-85
2022/08/11 09:48:44;;;;;;;1.70;1.45;;;32.30;99.90;;;;;;5032102;28;20253;-85
2022/08/11 09:51:12;;;;;;;4.90;1.63;;;32.30;99.90;;;;;;5031906;28;20209;-84
2022/08/11 09:53:41;;;;;;;2.38;1.50;;;32.00;99.90;;;;;;5032896;28;20219;-82
2022/08/11 09:58:58;;;;;;;1.65;1.27;;;31.70;99.90;;;;;;5032811;28;20273;-84
2022/08/11 10:01:31;;;;;;;2.47;1.83;;;31.60;99.90;;;;;;5035875;28;20510;-83
2022/08/11 10:04:03;;;;;;;3.42;1.23;;;31.60;99.90;;;;;;5035614;28;20269;-89
2022/08/11 10:09:19;;;;;;;2.30;1.40;;;31.50;99.90;;;;;;5042976;28;20205;-83
2022/08/11 10:16:58;;;;;;;2.17;1.40;;;31.70;99.90;;;;;;5055175;28;20217;-83
2022/08/11 10:19:26;;;;;;;2.28;1.45;;;31.70;99.90;;;;;;5055831;28;20198;-84
2022/08/11 10:27:29;;;;;;;1.75;1.40;;;31.80;99.90;;;;;;5056107;28;20201;-87
2022/08/11 10:35:30;;;;;;;2.10;1.40;;;32.60;99.90;;;;;;5075641;28;20339;-83
2022/08/11 10:37:58;;;;;;;4.43;1.38;;;32.70;99.90;;;;;;5055072;28;20661;-83
2022/08/11 10:40:25;;;;;;;2.28;1.35;;;32.90;99.90;;;;;;5055265;28;20586;-85
2022/08/11 10:43:09;;;;;;;1.48;1.30;;;32.80;99.90;;;;;;5055985;28;20285;-86
2022/08/11 10:48:26;;;;;;;2.03;1.40;;;32.80;99.90;;;;;;5052581;28;20224;-83
2022/08/11 10:51:13;;;;;;;2.38;1.50;;;32.60;99.90;;;;;;5035657;28;20199;-85
2022/08/11 10:59:14;;;;;;;2.97;1.67;;;32.40;99.90;;;;;;5034044;28;20213;-80
2022/08/11 11:01:42;;;;;;;3.20;1.60;;;32.50;99.90;;;;;;5034415;28;20201;-81
2022/08/11 11:04:14;;;;;;;2.67;1.63;;;32.60;99.90;;;;;;5033973;28;20790;-82
2022/08/11 11:06:50;;;;;;;2.78;1.85;;;32.60;99.90;;;;;;5034348;28;20201;-81
2022/08/11 11:09:20;;;;;;;3.30;1.50;;;32.80;99.90;;;;;;5035482;28;20256;-83
2022/08/11 11:20:19;;;;;;;3.42;1.95;;;33.20;99.90;;;;;;5047922;28;20198;-82
2022/08/11 11:22:51;;;;;;;3.70;1.65;;;33.40;99.90;;;;;;5034570;28;20809;-81
2022/08/11 11:25:33;;;;;;;3.17;1.70;;;33.30;99.90;;;;;;5033334;28;20214;-85
2022/08/11 11:28:25;;;;;;;2.15;1.60;;;33.50;99.90;;;;;;5035029;28;20217;-81
2022/08/11 11:31:03;;;;;;;4.75;1.90;;;33.70;99.90;;;;;;5037096;28;20198;-85
2022/08/11 11:33:47;;;;;;;4.13;1.77;;;33.50;99.90;;;;;;5038114;28;20195;-83
2022/08/11 11:36:24;;;;;;;2.70;1.90;;;33.40;99.90;;;;;;5035843;28;20230;-85
2022/08/11 11:38:55;;;;;;;2.33;1.50;;;33.40;99.90;;;;;;5034582;28;20204;-85
2022/08/11 11:41:26;;;;;;;3.72;1.70;;;33.40;99.90;;;;;;5034799;28;20199;-84
2022/08/11 11:43:55;;;;;;;3.45;1.63;;;33.40;99.90;;;;;;5046687;28;20205;-84
2022/08/11 11:46:24;;;;;;;3.60;1.70;;;33.60;99.90;;;;;;5054563;28;20202;-82
2022/08/11 11:48:52;;;;;;;2.38;1.52;;;33.60;99.90;;;;;;5053717;28;20721;-82
2022/08/11 11:51:21;;;;;;;2.05;1.67;;;33.60;99.90;;;;;;5039890;28;20245;-83
2022/08/11 11:53:49;;;;;;;4.45;1.83;;;33.60;99.90;;;;;;5033744;28;20233;-84
2022/08/11 11:56:17;;;;;;;3.47;1.70;;;33.70;99.90;;;;;;5037722;28;20206;-83
2022/08/11 12:01:29;;;;;;;4.30;1.88;;;33.80;99.90;;;;;;5054156;28;20200;-83
2022/08/11 12:03:58;;;;;;;4.90;1.70;;;33.90;99.90;;;;;;5053443;28;20720;-84
2022/08/11 12:06:27;;;;;;;6.47;1.80;;;33.80;99.90;;;;;;5054444;28;20190;-81
2022/08/11 12:08:57;;;;;;;2.35;1.70;;;33.90;99.90;;;;;;5053712;28;20202;-82
2022/08/11 12:14:11;;;;;;;3.53;1.52;;;33.80;99.90;;;;;;5035061;28;20700;-86
2022/08/11 12:16:41;;;;;;;3.55;1.83;;;33.70;99.90;;;;;;5053446;28;20202;-82
2022/08/11 12:19:12;;;;;;;3.22;1.80;;;33.60;99.90;;;;;;5044207;28;20411;-81
2022/08/11 12:27:19;;;;;;;2.08;1.38;;;33.70;99.90;;;;;;5033372;28;20194;-81
2022/08/11 12:27:26;;;;;;;5.40;1.73;;;33.90;99.90;;;;;;4986829;28;20206;-81
2022/08/11 12:29:59;;;;;;;3.78;1.83;;;34.10;99.90;;;;;;5053527;28;20297;-84
2022/08/11 12:32:28;;;;;;;2.17;1.50;;;33.90;99.90;;;;;;5053785;28;20506;-85
2022/08/11 12:34:56;;;;;;;4.00;1.90;;;34.00;99.90;;;;;;5052810;28;20249;-86
2022/08/11 12:37:30;;;;;;;3.22;1.73;;;34.00;99.90;;;;;;5053204;28;20248;-84
2022/08/11 12:45:32;;;;;;;3.38;1.40;;;33.90;99.90;;;;;;5052343;28;20243;-81
2022/08/11 12:53:49;;;;;;;4.13;1.48;;;34.20;99.90;;;;;;5053083;28;20185;-84
2022/08/11 13:07:17;;;;;;;3.05;1.38;;;34.00;98.90;;;;;;5052717;28;20700;-85
2022/08/11 13:09:46;;;;;;;4.05;1.60;;;34.00;99.10;;;;;;5051025;28;20199;-86
2022/08/11 13:14:59;;;;;;;1.50;1.38;;;33.90;98.80;;;;;;5033566;28;20345;-83
2022/08/11 13:17:28;;;;;;;2.70;1.45;;;34.00;98.70;;;;;;5034185;28;20198;-87
2022/08/11 13:19:56;;;;;;;2.70;1.58;;;34.10;98.10;;;;;;5052950;28;20659;-85
2022/08/11 13:22:23;;;;;;;4.68;1.60;;;33.90;96.90;;;;;;5053302;28;20621;-84
2022/08/11 13:24:54;;;;;;;3.40;1.60;;;33.80;96.60;;;;;;5050815;28;20202;-80
2022/08/11 13:27:22;;;;;;;3.20;1.95;;;33.80;97.40;;;;;;5031013;28;20500;-82
2022/08/11 13:29:52;;;;;;;4.95;1.55;;;33.80;97.40;;;;;;5032051;28;20207;-83
2022/08/11 13:32:25;;;;;;;2.55;1.50;;;33.70;96.30;;;;;;5032604;28;20206;-82
2022/08/11 13:34:52;;;;;;;1.98;1.40;;;33.80;97.40;;;;;;5034028;28;20202;-83
2022/08/11 13:37:21;;;;;;;3.92;1.80;;;33.90;98.10;;;;;;5052650;28;20233;-80
2022/08/11 13:39:48;;;;;;;1.83;1.45;;;33.80;97.20;;;;;;5054629;28;20190;-82
2022/08/11 13:42:20;;;;;;;2.63;1.88;;;33.90;97.80;;;;;;5054984;28;20229;-79
2022/08/11 13:44:47;;;;;;;4.90;1.77;;;33.70;97.10;;;;;;5056308;28;20263;-81
2022/08/11 13:47:16;;;;;;;2.30;1.63;;;33.80;97.50;;;;;;5056532;28;20220;-81
2022/08/11 13:49:46;;;;;;;2.38;1.50;;;33.80;97.30;;;;;;5055606;28;20221;-80
2022/08/11 13:52:15;;;;;;;1.85;1.50;;;33.90;98.20;;;;;;5055162;28;20209;-78
2022/08/11 13:54:42;;;;;;;2.88;1.48;;;33.80;97.80;;;;;;5055587;28;20217;-81
2022/08/11 13:57:13;;;;;;;2.38;1.55;;;33.80;97.60;;;;;;5045899;28;20202;-79
2022/08/11 13:59:42;;;;;;;2.30;1.67;;;33.80;97.20;;;;;;5035031;28;20190;-78
2022/08/11 14:02:14;;;;;;;2.33;1.55;;;33.80;97.40;;;;;;5049114;28;20524;-80
2022/08/11 14:04:45;;;;;;;3.47;1.60;;;33.70;97.70;;;;;;5055303;28;20584;-81
2022/08/11 14:07:13;;;;;;;3.85;1.65;;;33.60;98.60;;;;;;5055001;28;20214;-79
2022/08/11 14:09:44;;;;;;;4.60;1.80;;;33.50;97.90;;;;;;5054086;28;20202;-79
2022/08/11 14:15:10;;;;;;;4.15;1.63;;;33.40;97.70;;;;;;5045213;28;20291;-78
2022/08/11 14:17:40;;;;;;;2.40;1.70;;;33.20;97.20;;;;;;5053799;28;20200;-77
2022/08/11 14:20:11;;;;;;;3.63;1.80;;;33.10;98.10;;;;;;5054166;28;20205;-79
2022/08/11 14:22:40;;;;;;;3.30;1.83;;;33.10;97.90;;;;;;5053984;28;20190;-79
2022/08/11 14:25:08;;;;;;;4.68;1.67;;;33.00;98.20;;;;;;5052245;28;20194;-78
2022/08/11 14:27:35;;;;;;;2.15;1.52;;;32.80;98.00;;;;;;5052568;28;20510;-80
2022/08/11 14:30:53;;;;;;;2.03;1.80;;;32.80;97.90;;;;;;5033820;28;20211;-80
2022/08/11 14:33:01;;;;;;;2.28;1.65;;;32.90;97.60;;;;;;5033772;28;20285;-80
2022/08/11 14:35:29;;;;;;;5.03;1.83;;;32.70;97.60;;;;;;5034758;28;20535;-79
2022/08/11 14:37:58;;;;;;;2.03;1.50;;;32.60;98.10;;;;;;5033710;28;20226;-79
2022/08/11 14:48:54;;;;;;;3.00;1.63;;;32.70;99.90;;;;;;5030238;28;20206;-78
2022/08/11 14:51:22;;;;;;;2.83;1.65;;;32.80;99.50;;;;;;5045574;28;20198;-77
2022/08/11 14:56:34;;;;;;;2.58;1.60;;;32.80;97.40;;;;;;5052702;28;20221;-82
2022/08/11 14:56:35;;;;;;;2.92;1.60;;;32.80;98.30;;;;;;5034380;28;20202;-79
2022/08/11 14:59:03;;;;;;;2.22;1.50;;;32.70;98.30;;;;;;5038549;28;20271;-79
2022/08/11 15:04:23;;;;;;;3.97;1.80;;;32.50;97.40;;;;;;5040685;28;20602;-81
2022/08/11 15:06:50;;;;;;;3.47;1.48;;;32.50;98.00;;;;;;5033360;28;20213;-82
2022/08/11 15:09:18;;;;;;;3.03;1.60;;;32.40;97.30;;;;;;5033383;28;20657;-81
2022/08/11 15:17:19;;;;;;;2.65;1.52;;;32.20;97.10;;;;;;5033024;28;20193;-80
2022/08/11 15:25:19;;;;;;;3.67;1.77;;;32.00;98.20;;;;;;5051490;28;20186;-80
2022/08/11 15:38:58;;;;;;;3.95;1.88;;;31.80;99.10;;;;;;5033713;28;20225;-80
2022/08/11 15:47:04;;;;;;;4.50;1.33;;;31.70;99.90;;;;;;5035496;28;20202;-80
2022/08/11 15:49:34;;;;;;;2.70;1.73;;;31.60;99.90;;;;;;5049859;28;20232;-79
2022/08/11 15:52:05;;;;;;;3.03;2.22;;;31.60;99.90;;;;;;5052831;28;20221;-81
2022/08/11 15:54:34;;;;;;;3.60;1.50;;;31.50;99.90;;;;;;5049959;28;20209;-82
2022/08/11 15:57:04;;;;;;;5.20;1.55;;;31.50;99.90;;;;;;5049897;28;20208;-80
2022/08/11 16:05:12;;;;;;;2.15;1.40;;;31.20;99.90;;;;;;5052816;28;20173;-80
2022/08/11 16:07:48;;;;;;;2.92;1.77;;;31.20;99.90;;;;;;5054544;28;20205;-82
2022/08/11 16:10:20;;;;;;;3.55;1.80;;;31.20;99.90;;;;;;5053955;28;20205;-81
2022/08/11 16:16:13;;;;;;;2.55;1.63;;;31.10;99.90;;;;;;5050309;28;20238;-81
2022/08/11 16:18:45;;;;;;;4.20;1.55;;;30.90;99.90;;;;;;5055178;28;20292;-81
2022/08/11 16:21:17;;;;;;;2.45;1.58;;;30.90;99.90;;;;;;5060197;28;20225;-81
2022/08/11 16:23:48;;;;;;;1.95;1.75;;;30.90;99.90;;;;;;5057911;28;20194;-84
2022/08/11 16:26:23;;;;;;;2.30;2.00;;;30.90;99.90;;;;;;5058847;28;20284;-82
2022/08/11 16:28:52;;;;;;;5.05;2.05;;;30.80;99.90;;;;;;5054550;28;20188;-82
2022/08/11 16:31:22;;;;;;;2.33;1.73;;;30.70;99.90;;;;;;5054238;28;20289;-81
2022/08/11 16:33:51;;;;;;;6.55;2.00;;;30.60;99.90;;;;;;5055988;28;20281;-80
2022/08/11 16:39:08;;;;;;;1.70;1.60;;;30.60;99.90;;;;;;5056817;28;20232;-80
2022/08/11 16:47:14;;;;;;;2.88;1.42;;;30.40;99.90;;;;;;5052652;28;20315;-80
2022/08/11 16:49:47;;;;;;;1.75;1.35;;;30.30;99.90;;;;;;5056355;28;20186;-79
2022/08/11 16:52:15;;;;;;;3.35;1.60;;;30.30;99.90;;;;;;5052893;28;20194;-78
2022/08/11 16:54:46;;;;;;;2.70;1.80;;;30.20;99.90;;;;;;5051080;28;20190;-80
2022/08/11 17:00:05;;;;;;;2.47;1.95;;;30.10;99.90;;;;;;5054470;28;20565;-79
2022/08/11 17:13:50;;;;;;;4.20;2.17;;;29.80;1.00;;;;;;5053588;28;20247;-80
2022/08/11 17:16:23;;;;;;;5.70;1.60;;;29.80;1.00;;;;;;5043619;28;20210;-80
2022/08/11 17:19:04;;;;;;;3.55;2.15;;;29.70;99.90;;;;;;5033910;28;20511;-80
2022/08/11 17:21:34;;;;;;;2.83;2.00;;;29.70;99.90;;;;;;5035175;28;20198;-80
2022/08/11 17:24:03;;;;;;;2.25;2.03;;;29.50;99.90;;;;;;5032791;28;20205;-80
2022/08/11 17:26:54;;;;;;;2.92;1.98;;;29.50;99.90;;;;;;5048337;28;20198;-79
2022/08/11 17:29:30;;;;;;;2.30;1.65;;;29.50;99.90;;;;;;5051402;28;20689;-82
2022/08/11 17:37:34;;;;;;;2.28;1.70;;;29.30;1.00;;;;;;5036622;28;20226;-81
2022/08/11 17:40:03;;;;;;;2.50;2.00;;;29.20;1.00;;;;;;5034159;28;20201;-82
2022/08/11 17:51:05;;;;;;;7.43;2.25;;;28.90;1.00;;;;;;4974288;28;20692;-82
2022/08/11 18:03:27;;;;;;;3.05;2.25;;;28.40;1.00;;;;;;5048268;28;20212;-80
2022/08/11 18:04:43;;;;;;;7.55;2.00;;;28.40;1.00;;;;;;5048813;28;20202;-81
